TGW644 WSSS-VTSP
Flight info
| Callsign | TGW644 |
|---|---|
| Flight time | N/A |
| Altitude | 32000 |
| Route | AROSO5B AROSO Y513 KALIL Y501 RINBA Y502 DUBAX R325 URGAD URGAD1C |
| Aircraft | A21N/M-SDE2E3FGHIJ1RWXY/LB1 |
Departure
| Time | N/A |
|---|---|
| Airport | Singapore Changi Airport (WSSS) |
Arrival
| Time | 2026-05-06 13:03 |
|---|---|
| Airport | Phuket International Airport (VTSP) |
| Time | Latitude | Longitude | Altitude | Speed | Heading |
|---|---|---|---|---|---|
| 2026-05-06 12:13 | 4.42330 | 101.16094 | 31790 ft | 475 kts | 336° |
| 2026-05-06 12:13 | 4.48379 | 101.13399 | 31791 ft | 475 kts | 336° |
| 2026-05-06 12:14 | 4.54423 | 101.10706 | 31786 ft | 475 kts | 336° |
| 2026-05-06 12:14 | 4.60437 | 101.08050 | 31792 ft | 475 kts | 337° |
| 2026-05-06 12:15 | 4.66521 | 101.05443 | 31793 ft | 475 kts | 337° |
| 2026-05-06 12:15 | 4.72589 | 101.02835 | 31786 ft | 475 kts | 337° |
| 2026-05-06 12:16 | 4.78691 | 101.00205 | 32087 ft | 476 kts | 337° |
| 2026-05-06 12:16 | 4.81727 | 100.98896 | 32296 ft | 475 kts | 337° |
| 2026-05-06 12:16 | 4.84760 | 100.97590 | 32496 ft | 474 kts | 337° |
| 2026-05-06 12:17 | 4.87789 | 100.96285 | 32674 ft | 474 kts | 337° |
| 2026-05-06 12:17 | 4.90822 | 100.94976 | 32848 ft | 474 kts | 337° |
| 2026-05-06 12:17 | 4.93848 | 100.93670 | 33011 ft | 473 kts | 337° |
| 2026-05-06 12:17 | 4.96875 | 100.92364 | 33185 ft | 473 kts | 336° |
| 2026-05-06 12:18 | 4.99897 | 100.91058 | 33363 ft | 473 kts | 336° |
| 2026-05-06 12:18 | 5.02916 | 100.89752 | 33530 ft | 472 kts | 336° |
| 2026-05-06 12:18 | 5.05936 | 100.88450 | 33669 ft | 472 kts | 336° |
| 2026-05-06 12:18 | 5.08954 | 100.87146 | 33798 ft | 473 kts | 336° |
| 2026-05-06 12:19 | 5.14988 | 100.84535 | 33800 ft | 472 kts | 336° |
| 2026-05-06 12:19 | 5.20976 | 100.81948 | 33783 ft | 472 kts | 336° |
| 2026-05-06 12:20 | 5.27042 | 100.79326 | 33765 ft | 472 kts | 336° |
| 2026-05-06 12:20 | 5.33032 | 100.76735 | 33770 ft | 472 kts | 336° |
| 2026-05-06 12:21 | 5.38965 | 100.73929 | 33775 ft | 472 kts | 331° |
| 2026-05-06 12:21 | 5.44691 | 100.70689 | 33778 ft | 472 kts | 330° |
| 2026-05-06 12:22 | 5.50414 | 100.67447 | 33777 ft | 472 kts | 330° |
| 2026-05-06 12:22 | 5.56136 | 100.64211 | 33772 ft | 473 kts | 330° |
| 2026-05-06 12:23 | 5.61877 | 100.60966 | 33771 ft | 473 kts | 330° |
| 2026-05-06 12:23 | 5.67618 | 100.57719 | 33768 ft | 473 kts | 330° |
| 2026-05-06 12:24 | 5.73327 | 100.54490 | 33767 ft | 473 kts | 330° |
| 2026-05-06 12:24 | 5.79051 | 100.51228 | 33769 ft | 473 kts | 329° |
| 2026-05-06 12:25 | 5.84720 | 100.47831 | 33780 ft | 473 kts | 329° |
| 2026-05-06 12:25 | 5.90371 | 100.44439 | 33781 ft | 473 kts | 329° |
| 2026-05-06 12:26 | 5.95997 | 100.41065 | 33782 ft | 473 kts | 329° |
| 2026-05-06 12:26 | 6.01646 | 100.37670 | 33781 ft | 473 kts | 329° |
| 2026-05-06 12:27 | 6.07308 | 100.34274 | 33785 ft | 473 kts | 329° |
| 2026-05-06 12:27 | 6.12965 | 100.30871 | 33788 ft | 473 kts | 329° |
| 2026-05-06 12:28 | 6.18634 | 100.27463 | 33790 ft | 473 kts | 329° |
| 2026-05-06 12:28 | 6.24255 | 100.24088 | 33790 ft | 473 kts | 329° |
| 2026-05-06 12:29 | 6.29905 | 100.20695 | 33791 ft | 473 kts | 329° |
| 2026-05-06 12:29 | 6.35558 | 100.17296 | 33791 ft | 473 kts | 329° |
| 2026-05-06 12:30 | 6.41210 | 100.13886 | 33791 ft | 473 kts | 328° |
| 2026-05-06 12:30 | 6.43849 | 100.11910 | 33785 ft | 473 kts | 317° |
| 2026-05-06 12:30 | 6.46122 | 100.09577 | 33793 ft | 474 kts | 312° |
| 2026-05-06 12:31 | 6.50544 | 100.04631 | 33790 ft | 474 kts | 312° |
| 2026-05-06 12:31 | 6.54972 | 99.99714 | 33791 ft | 474 kts | 312° |
| 2026-05-06 12:32 | 6.59395 | 99.94803 | 33791 ft | 473 kts | 312° |
| 2026-05-06 12:32 | 6.63781 | 99.89915 | 33790 ft | 473 kts | 312° |
| 2026-05-06 12:33 | 6.68235 | 99.85029 | 33792 ft | 473 kts | 312° |
| 2026-05-06 12:33 | 6.71268 | 99.81668 | 33791 ft | 473 kts | 312° |
| 2026-05-06 12:35 | 6.74909 | 99.77637 | 33542 ft | 469 kts | 312° |
| 2026-05-06 12:36 | 6.77086 | 99.75231 | 33214 ft | 472 kts | 312° |
| 2026-05-06 12:36 | 6.79303 | 99.72780 | 32941 ft | 473 kts | 312° |
| 2026-05-06 12:36 | 6.81513 | 99.70328 | 32682 ft | 474 kts | 312° |
| 2026-05-06 12:36 | 6.83727 | 99.67867 | 32434 ft | 475 kts | 312° |
| 2026-05-06 12:37 | 6.85951 | 99.65405 | 32185 ft | 475 kts | 312° |
| 2026-05-06 12:37 | 6.88176 | 99.62938 | 31931 ft | 475 kts | 312° |
| 2026-05-06 12:37 | 6.90408 | 99.60462 | 31684 ft | 476 kts | 312° |
| 2026-05-06 12:37 | 6.92608 | 99.58023 | 31437 ft | 477 kts | 312° |
| 2026-05-06 12:38 | 6.94840 | 99.55549 | 31186 ft | 477 kts | 312° |
| 2026-05-06 12:38 | 6.97070 | 99.53078 | 30930 ft | 478 kts | 312° |
| 2026-05-06 12:38 | 6.99312 | 99.50595 | 30685 ft | 479 kts | 312° |
| 2026-05-06 12:38 | 7.01583 | 99.48140 | 30434 ft | 479 kts | 313° |
| 2026-05-06 12:39 | 7.03883 | 99.45686 | 30181 ft | 480 kts | 313° |
| 2026-05-06 12:39 | 7.05400 | 99.44068 | 29868 ft | 478 kts | 313° |
| 2026-05-06 12:39 | 7.07676 | 99.41640 | 29076 ft | 476 kts | 313° |
| 2026-05-06 12:39 | 7.09950 | 99.39216 | 28187 ft | 476 kts | 313° |
| 2026-05-06 12:40 | 7.12964 | 99.36012 | 26985 ft | 476 kts | 314° |
| 2026-05-06 12:40 | 7.14517 | 99.34383 | 26355 ft | 476 kts | 314° |
| 2026-05-06 12:40 | 7.16806 | 99.31974 | 25412 ft | 476 kts | 314° |
| 2026-05-06 12:40 | 7.19096 | 99.29559 | 24480 ft | 477 kts | 313° |
| 2026-05-06 12:41 | 7.21372 | 99.27122 | 23633 ft | 475 kts | 313° |
| 2026-05-06 12:41 | 7.23630 | 99.24708 | 22880 ft | 472 kts | 313° |
| 2026-05-06 12:41 | 7.25850 | 99.22344 | 22205 ft | 467 kts | 313° |
| 2026-05-06 12:41 | 7.28097 | 99.19943 | 21767 ft | 479 kts | 313° |
| 2026-05-06 12:42 | 7.30389 | 99.17495 | 21386 ft | 479 kts | 313° |
| 2026-05-06 12:42 | 7.32662 | 99.15074 | 20898 ft | 470 kts | 313° |
| 2026-05-06 12:42 | 7.34883 | 99.12705 | 20286 ft | 463 kts | 313° |
| 2026-05-06 12:42 | 7.37079 | 99.10361 | 19652 ft | 456 kts | 313° |
| 2026-05-06 12:43 | 7.39244 | 99.08048 | 19023 ft | 450 kts | 313° |
| 2026-05-06 12:43 | 7.41360 | 99.05791 | 18413 ft | 445 kts | 314° |
| 2026-05-06 12:43 | 7.43488 | 99.03516 | 17759 ft | 442 kts | 314° |
| 2026-05-06 12:43 | 7.45594 | 99.01268 | 17092 ft | 440 kts | 314° |
| 2026-05-06 12:44 | 7.47690 | 98.99028 | 16488 ft | 436 kts | 314° |
| 2026-05-06 12:44 | 7.49742 | 98.96834 | 15921 ft | 431 kts | 314° |
| 2026-05-06 12:44 | 7.51783 | 98.94648 | 15384 ft | 427 kts | 314° |
| 2026-05-06 12:44 | 7.53812 | 98.92478 | 14833 ft | 423 kts | 314° |
| 2026-05-06 12:45 | 7.55829 | 98.90322 | 14338 ft | 418 kts | 314° |
| 2026-05-06 12:45 | 7.57818 | 98.88197 | 13908 ft | 412 kts | 314° |
| 2026-05-06 12:45 | 7.61695 | 98.84044 | 13012 ft | 404 kts | 314° |
| 2026-05-06 12:46 | 7.63615 | 98.81987 | 12465 ft | 401 kts | 314° |
| 2026-05-06 12:46 | 7.65524 | 98.79946 | 11952 ft | 397 kts | 314° |
| 2026-05-06 12:46 | 7.67394 | 98.77943 | 11582 ft | 386 kts | 314° |
| 2026-05-06 12:46 | 7.69202 | 98.76008 | 11330 ft | 372 kts | 314° |
| 2026-05-06 12:47 | 7.70918 | 98.74172 | 11127 ft | 358 kts | 314° |
| 2026-05-06 12:47 | 7.72598 | 98.72373 | 10926 ft | 344 kts | 314° |
| 2026-05-06 12:47 | 7.74196 | 98.70648 | 10742 ft | 331 kts | 314° |
| 2026-05-06 12:47 | 7.75740 | 98.68979 | 10559 ft | 318 kts | 313° |
| 2026-05-06 12:48 | 7.77014 | 98.67212 | 10318 ft | 309 kts | 295° |
| 2026-05-06 12:48 | 7.77600 | 98.65146 | 10009 ft | 305 kts | 280° |
| 2026-05-06 12:48 | 7.77924 | 98.63030 | 9843 ft | 305 kts | 278° |
| 2026-05-06 12:48 | 7.78229 | 98.60914 | 9707 ft | 305 kts | 279° |
| 2026-05-06 12:49 | 7.78549 | 98.58812 | 9578 ft | 304 kts | 279° |
| 2026-05-06 12:49 | 7.78878 | 98.56703 | 9452 ft | 304 kts | 279° |
| 2026-05-06 12:49 | 7.79214 | 98.54631 | 9342 ft | 303 kts | 280° |
| 2026-05-06 12:49 | 7.79557 | 98.52531 | 9230 ft | 303 kts | 280° |
| 2026-05-06 12:50 | 7.79745 | 98.51386 | 9164 ft | 303 kts | 280° |
| 2026-05-06 12:50 | 7.80088 | 98.49293 | 9041 ft | 302 kts | 280° |
| 2026-05-06 12:50 | 7.80561 | 98.47240 | 8948 ft | 301 kts | 290° |
| 2026-05-06 12:50 | 7.81441 | 98.45335 | 8956 ft | 300 kts | 299° |
| 2026-05-06 12:51 | 7.82440 | 98.43490 | 8970 ft | 299 kts | 300° |
| 2026-05-06 12:51 | 7.83439 | 98.41640 | 8977 ft | 300 kts | 299° |
| 2026-05-06 12:51 | 7.84424 | 98.39788 | 8978 ft | 300 kts | 299° |
| 2026-05-06 12:51 | 7.85403 | 98.37929 | 8978 ft | 300 kts | 299° |
| 2026-05-06 12:52 | 7.86373 | 98.36065 | 8979 ft | 300 kts | 298° |
| 2026-05-06 12:52 | 7.87344 | 98.34204 | 8979 ft | 300 kts | 299° |
| 2026-05-06 12:52 | 7.88316 | 98.32342 | 8982 ft | 300 kts | 298° |
| 2026-05-06 12:52 | 7.89286 | 98.30479 | 8980 ft | 300 kts | 298° |
| 2026-05-06 12:53 | 7.90244 | 98.28639 | 8982 ft | 300 kts | 298° |
| 2026-05-06 12:53 | 7.91212 | 98.26776 | 8979 ft | 300 kts | 298° |
| 2026-05-06 12:53 | 7.92181 | 98.24909 | 8978 ft | 300 kts | 298° |
| 2026-05-06 12:53 | 7.93150 | 98.23044 | 8978 ft | 300 kts | 298° |
| 2026-05-06 12:54 | 7.94116 | 98.21184 | 8977 ft | 300 kts | 298° |
| 2026-05-06 12:54 | 7.95084 | 98.19316 | 8979 ft | 300 kts | 298° |
| 2026-05-06 12:54 | 7.96046 | 98.17459 | 8981 ft | 300 kts | 298° |
| 2026-05-06 12:54 | 7.97006 | 98.15601 | 8632 ft | 298 kts | 298° |
| 2026-05-06 12:55 | 7.97980 | 98.13730 | 7978 ft | 300 kts | 298° |
| 2026-05-06 12:55 | 7.98897 | 98.11887 | 7439 ft | 298 kts | 292° |
| 2026-05-06 12:55 | 7.99268 | 98.09847 | 6843 ft | 297 kts | 269° |
| 2026-05-06 12:55 | 7.99095 | 98.07778 | 6291 ft | 295 kts | 263° |
| 2026-05-06 12:56 | 7.98875 | 98.05754 | 5909 ft | 286 kts | 268° |
| 2026-05-06 12:56 | 7.99236 | 98.03825 | 5539 ft | 278 kts | 296° |
| 2026-05-06 12:56 | 8.00347 | 98.02299 | 5445 ft | 263 kts | 323° |
| 2026-05-06 12:56 | 8.01970 | 98.01599 | 5196 ft | 252 kts | 358° |
| 2026-05-06 12:57 | 8.03697 | 98.01662 | 5182 ft | 251 kts | 6° |
| 2026-05-06 12:57 | 8.05448 | 98.01750 | 5237 ft | 252 kts | 3° |
| 2026-05-06 12:57 | 8.07178 | 98.01957 | 5164 ft | 249 kts | 22° |
| 2026-05-06 12:57 | 8.08555 | 98.02943 | 4970 ft | 245 kts | 55° |
| 2026-05-06 12:58 | 8.09139 | 98.04517 | 4666 ft | 242 kts | 86° |
| 2026-05-06 12:58 | 8.09188 | 98.06215 | 4328 ft | 242 kts | 89° |
| 2026-05-06 12:58 | 8.09237 | 98.07912 | 3950 ft | 241 kts | 87° |
| 2026-05-06 12:58 | 8.09331 | 98.09606 | 3568 ft | 240 kts | 86° |
| 2026-05-06 12:59 | 8.09447 | 98.11285 | 3198 ft | 240 kts | 86° |
| 2026-05-06 12:59 | 8.09574 | 98.12940 | 2834 ft | 239 kts | 86° |
| 2026-05-06 12:59 | 8.09712 | 98.14612 | 2460 ft | 237 kts | 85° |
| 2026-05-06 12:59 | 8.09855 | 98.16266 | 2090 ft | 234 kts | 85° |
| 2026-05-06 13:00 | 8.10001 | 98.17891 | 1721 ft | 229 kts | 85° |
| 2026-05-06 13:00 | 8.10138 | 98.19401 | 1583 ft | 203 kts | 85° |
| 2026-05-06 13:00 | 8.10256 | 98.20700 | 1673 ft | 170 kts | 85° |
| 2026-05-06 13:00 | 8.10368 | 98.21859 | 1679 ft | 165 kts | 85° |
| 2026-05-06 13:01 | 8.10466 | 98.22990 | 1523 ft | 153 kts | 85° |
| 2026-05-06 13:01 | 8.10558 | 98.24012 | 1279 ft | 143 kts | 84° |
| 2026-05-06 13:01 | 8.10661 | 98.25016 | 1080 ft | 144 kts | 84° |
| 2026-05-06 13:01 | 8.10774 | 98.26015 | 888 ft | 143 kts | 84° |
| 2026-05-06 13:02 | 8.10876 | 98.27015 | 696 ft | 143 kts | 84° |
| 2026-05-06 13:02 | 8.10971 | 98.28011 | 508 ft | 142 kts | 84° |
| 2026-05-06 13:02 | 8.11068 | 98.29003 | 347 ft | 142 kts | 84° |
| 2026-05-06 13:02 | 8.11162 | 98.29998 | 159 ft | 142 kts | 85° |
| 2026-05-06 13:03 | 8.11255 | 98.30978 | 41 ft | 134 kts | 84° |
| 2026-05-06 13:03 | 8.11330 | 98.31779 | 54 ft | 93 kts | 84° |
| 2026-05-06 13:03 | 8.11371 | 98.32203 | 71 ft | 34 kts | 84° |
| 2026-05-06 13:03 | 8.11329 | 98.32402 | 84 ft | 15 kts | 114° |
| 2026-05-06 13:04 | 8.11253 | 98.32390 | 85 ft | 16 kts | 252° |
| 2026-05-06 13:04 | 8.11242 | 98.32276 | 73 ft | 17 kts | 263° |
| 2026-05-06 13:04 | 8.11230 | 98.32156 | 71 ft | 18 kts | 265° |
| 2026-05-06 13:04 | 8.11219 | 98.32031 | 60 ft | 18 kts | 264° |
| 2026-05-06 13:05 | 8.11207 | 98.31901 | 59 ft | 19 kts | 264° |
| 2026-05-06 13:05 | 8.11194 | 98.31765 | 54 ft | 20 kts | 264° |
| 2026-05-06 13:05 | 8.11181 | 98.31627 | 48 ft | 20 kts | 264° |
| 2026-05-06 13:05 | 8.11167 | 98.31482 | 43 ft | 21 kts | 264° |
| 2026-05-06 13:06 | 8.11153 | 98.31333 | 38 ft | 22 kts | 264° |
| 2026-05-06 13:06 | 8.11139 | 98.31178 | 36 ft | 23 kts | 264° |
| 2026-05-06 13:06 | 8.11125 | 98.31026 | 35 ft | 22 kts | 264° |
| 2026-05-06 13:06 | 8.11088 | 98.30925 | 35 ft | 14 kts | 257° |
| 2026-05-06 13:07 | 8.11077 | 98.30820 | 34 ft | 16 kts | 264° |
| 2026-05-06 13:07 | 8.11067 | 98.30708 | 34 ft | 17 kts | 264° |
| 2026-05-06 13:07 | 8.11055 | 98.30586 | 33 ft | 18 kts | 264° |
| 2026-05-06 13:07 | 8.11026 | 98.30490 | 33 ft | 13 kts | 216° |
| 2026-05-06 13:08 | 8.10936 | 98.30464 | 32 ft | 14 kts | 194° |
| 2026-05-06 13:08 | 8.10834 | 98.30439 | 32 ft | 16 kts | 194° |
| 2026-05-06 13:08 | 8.10792 | 98.30466 | 32 ft | 8 kts | 105° |
| 2026-05-06 13:08 | 8.10781 | 98.30508 | 33 ft | 2 kts | 104° |
| 2026-05-06 13:09 | 8.10779 | 98.30516 | 33 ft | 0 kts | 104° |